sensor_id;sensor_type;location;lat;lon;timestamp;pressure;altitude;pressure_sealevel;temperature;humidity
44103;BME280;29769;42.178;24.742;2022-12-07T00:00:15;99839.16;;;3.90;100.00
44103;BME280;29769;42.178;24.742;2022-12-07T00:02:59;99842.59;;;3.89;100.00
44103;BME280;29769;42.178;24.742;2022-12-07T00:05:44;99848.69;;;3.91;100.00
44103;BME280;29769;42.178;24.742;2022-12-07T00:08:29;99846.03;;;3.88;100.00
44103;BME280;29769;42.178;24.742;2022-12-07T00:11:19;99848.63;;;3.85;100.00
44103;BME280;29769;42.178;24.742;2022-12-07T00:14:06;99846.88;;;3.87;100.00
44103;BME280;29769;42.178;24.742;2022-12-07T00:16:50;99842.50;;;3.81;100.00
44103;BME280;29769;42.178;24.742;2022-12-07T00:19:35;99842.44;;;3.77;100.00
44103;BME280;29769;42.178;24.742;2022-12-07T00:22:19;99848.50;;;3.79;100.00
44103;BME280;29769;42.178;24.742;2022-12-07T00:25:04;99841.59;;;3.79;100.00
44103;BME280;29769;42.178;24.742;2022-12-07T00:27:49;99844.16;;;3.78;100.00
44103;BME280;29769;42.178;24.742;2022-12-07T00:30:34;99799.59;;;3.53;100.00
44103;BME280;29769;42.178;24.742;2022-12-07T00:33:19;99847.63;;;3.78;100.00
44103;BME280;29769;42.178;24.742;2022-12-07T00:36:05;99848.47;;;3.77;100.00
44103;BME280;29769;42.178;24.742;2022-12-07T00:38:51;99834.66;;;3.80;100.00
44103;BME280;29769;42.178;24.742;2022-12-07T00:41:36;99851.19;;;3.83;100.00
44103;BME280;29769;42.178;24.742;2022-12-07T00:44:20;99845.13;;;3.84;100.00
44103;BME280;29769;42.178;24.742;2022-12-07T00:47:05;99840.81;;;3.85;100.00
44103;BME280;29769;42.178;24.742;2022-12-07T00:49:49;99841.66;;;3.84;100.00
44103;BME280;29769;42.178;24.742;2022-12-07T00:52:34;99841.66;;;3.84;100.00
44103;BME280;29769;42.178;24.742;2022-12-07T00:55:18;99836.34;;;3.78;100.00
44103;BME280;29769;42.178;24.742;2022-12-07T00:58:03;99844.16;;;3.76;100.00
44103;BME280;29769;42.178;24.742;2022-12-07T01:00:48;99835.38;;;3.70;100.00
44103;BME280;29769;42.178;24.742;2022-12-07T01:03:33;99837.88;;;3.64;100.00
44103;BME280;29769;42.178;24.742;2022-12-07T01:06:18;99842.16;;;3.58;100.00
44103;BME280;29769;42.178;24.742;2022-12-07T01:09:03;99835.13;;;3.53;100.00
44103;BME280;29769;42.178;24.742;2022-12-07T01:11:49;99830.75;;;3.50;100.00
44103;BME280;29769;42.178;24.742;2022-12-07T01:14:33;99832.47;;;3.48;100.00
44103;BME280;29769;42.178;24.742;2022-12-07T01:17:18;99833.38;;;3.52;100.00
44103;BME280;29769;42.178;24.742;2022-12-07T01:20:03;99822.97;;;3.52;100.00
44103;BME280;29769;42.178;24.742;2022-12-07T01:22:48;99822.09;;;3.51;100.00
44103;BME280;29769;42.178;24.742;2022-12-07T01:25:32;99818.66;;;3.52;100.00
44103;BME280;29769;42.178;24.742;2022-12-07T01:28:17;99818.66;;;3.52;100.00
44103;BME280;29769;42.178;24.742;2022-12-07T01:31:08;99823.00;;;3.55;100.00
44103;BME280;29769;42.178;24.742;2022-12-07T01:33:57;99810.97;;;3.60;100.00
44103;BME280;29769;42.178;24.742;2022-12-07T01:36:41;99818.81;;;3.63;100.00
44103;BME280;29769;42.178;24.742;2022-12-07T01:39:26;99816.22;;;3.63;100.00
44103;BME280;29769;42.178;24.742;2022-12-07T01:42:11;99807.50;;;3.61;100.00
44103;BME280;29769;42.178;24.742;2022-12-07T01:47:59;99798.84;;;3.62;100.00
44103;BME280;29769;42.178;24.742;2022-12-07T01:50:44;99792.78;;;3.62;100.00
44103;BME280;29769;42.178;24.742;2022-12-07T01:53:29;99789.28;;;3.59;100.00
44103;BME280;29769;42.178;24.742;2022-12-07T01:56:16;99795.34;;;3.60;100.00
44103;BME280;29769;42.178;24.742;2022-12-07T01:59:01;99805.69;;;3.55;100.00
44103;BME280;29769;42.178;24.742;2022-12-07T02:01:46;99803.88;;;3.50;100.00
44103;BME280;29769;42.178;24.742;2022-12-07T02:04:30;99802.19;;;3.52;100.00
44103;BME280;29769;42.178;24.742;2022-12-07T02:07:15;99800.47;;;3.55;100.00
44103;BME280;29769;42.178;24.742;2022-12-07T02:10:17;99797.00;;;3.53;100.00
44103;BME280;29769;42.178;24.742;2022-12-07T02:21:58;99787.34;;;3.46;100.00
44103;BME280;29769;42.178;24.742;2022-12-07T02:25:04;99771.81;;;3.49;100.00
44103;BME280;29769;42.178;24.742;2022-12-07T02:28:19;99771.84;;;3.52;100.00
44103;BME280;29769;42.178;24.742;2022-12-07T02:30:58;99766.78;;;3.62;100.00
44103;BME280;29769;42.178;24.742;2022-12-07T02:33:49;99770.38;;;3.71;100.00
44103;BME280;29769;42.178;24.742;2022-12-07T02:36:46;99764.22;;;3.66;100.00
44103;BME280;29769;42.178;24.742;2022-12-07T02:39:53;99766.81;;;3.63;100.00
44103;BME280;29769;42.178;24.742;2022-12-07T02:42:41;99768.44;;;3.56;100.00
44103;BME280;29769;42.178;24.742;2022-12-07T02:45:26;99771.84;;;3.52;100.00
44103;BME280;29769;42.178;24.742;2022-12-07T02:48:14;99758.88;;;3.55;100.00
44103;BME280;29769;42.178;24.742;2022-12-07T02:51:00;99765.84;;;3.58;100.00
44103;BME280;29769;42.178;24.742;2022-12-07T02:53:44;99757.25;;;3.64;100.00
44103;BME280;29769;42.178;24.742;2022-12-07T03:02:19;99744.50;;;3.83;100.00
44103;BME280;29769;42.178;24.742;2022-12-07T03:11:03;99748.13;;;3.94;100.00
44103;BME280;29769;42.178;24.742;2022-12-07T03:16:53;99757.72;;;4.00;100.00
44103;BME280;29769;42.178;24.742;2022-12-07T03:19:41;99764.56;;;3.92;100.00
44103;BME280;29769;42.178;24.742;2022-12-07T03:22:29;99762.75;;;3.86;100.00
44103;BME280;29769;42.178;24.742;2022-12-07T03:25:15;99760.16;;;3.88;100.00
44103;BME280;29769;42.178;24.742;2022-12-07T03:28:02;99763.66;;;3.88;100.00
44103;BME280;29769;42.178;24.742;2022-12-07T03:30:56;99763.63;;;3.87;100.00
44103;BME280;29769;42.178;24.742;2022-12-07T03:40:12;99758.47;;;3.91;100.00
44103;BME280;29769;42.178;24.742;2022-12-07T03:42:54;99755.09;;;3.98;100.00
44103;BME280;29769;42.178;24.742;2022-12-07T03:45:43;99756.03;;;4.03;100.00
44103;BME280;29769;42.178;24.742;2022-12-07T03:51:20;99755.25;;;4.11;100.00
44103;BME280;29769;42.178;24.742;2022-12-07T03:56:54;99748.31;;;4.11;100.00
44103;BME280;29769;42.178;24.742;2022-12-07T03:59:39;99741.31;;;4.07;100.00
44103;BME280;29769;42.178;24.742;2022-12-07T04:02:24;99746.44;;;4.01;100.00
44103;BME280;29769;42.178;24.742;2022-12-07T04:05:10;99693.09;;;3.63;100.00
44103;BME280;29769;42.178;24.742;2022-12-07T04:07:55;99740.22;;;3.88;100.00
44103;BME280;29769;42.178;24.742;2022-12-07T04:10:40;99747.97;;;3.84;100.00
44103;BME280;29769;42.178;24.742;2022-12-07T04:13:24;99743.63;;;3.81;100.00
44103;BME280;29769;42.178;24.742;2022-12-07T04:16:09;99741.03;;;3.81;100.00
44103;BME280;29769;42.178;24.742;2022-12-07T04:18:53;99741.03;;;3.83;100.00
44103;BME280;29769;42.178;24.742;2022-12-07T04:21:38;99735.75;;;3.78;100.00
44103;BME280;29769;42.178;24.742;2022-12-07T04:24:23;99733.22;;;3.81;100.00
44103;BME280;29769;42.178;24.742;2022-12-07T04:27:08;99741.03;;;3.81;100.00
44103;BME280;29769;42.178;24.742;2022-12-07T04:29:53;99732.28;;;3.78;100.00
44103;BME280;29769;42.178;24.742;2022-12-07T04:32:37;99739.34;;;3.88;100.00
44103;BME280;29769;42.178;24.742;2022-12-07T04:35:22;99736.91;;;4.01;100.00
44103;BME280;29769;42.178;24.742;2022-12-07T04:38:06;99725.66;;;4.02;100.00
44103;BME280;29769;42.178;24.742;2022-12-07T04:40:51;99729.09;;;3.98;100.00
44103;BME280;29769;42.178;24.742;2022-12-07T04:43:35;99734.38;;;4.06;100.00
44103;BME280;29769;42.178;24.742;2022-12-07T04:46:20;99734.38;;;4.06;100.00
44103;BME280;29769;42.178;24.742;2022-12-07T04:49:04;99730.00;;;4.05;100.00
44103;BME280;29769;42.178;24.742;2022-12-07T04:51:49;99729.09;;;4.01;100.00
44103;BME280;29769;42.178;24.742;2022-12-07T04:54:34;99731.72;;;4.01;100.00
44103;BME280;29769;42.178;24.742;2022-12-07T04:57:18;99735.22;;;4.05;100.00
44103;BME280;29769;42.178;24.742;2022-12-07T05:00:02;99729.09;;;4.01;100.00
44103;BME280;29769;42.178;24.742;2022-12-07T05:02:48;99735.13;;;3.97;100.00
44103;BME280;29769;42.178;24.742;2022-12-07T05:05:32;99743.84;;;4.01;100.00
44103;BME280;29769;42.178;24.742;2022-12-07T05:08:17;99746.44;;;4.01;100.00
44103;BME280;29769;42.178;24.742;2022-12-07T05:11:02;99747.28;;;4.00;100.00
44103;BME280;29769;42.178;24.742;2022-12-07T05:13:47;99743.94;;;4.07;100.00
44103;BME280;29769;42.178;24.742;2022-12-07T05:16:31;99741.28;;;4.06;100.00
44103;BME280;29769;42.178;24.742;2022-12-07T05:19:16;99737.00;;;4.11;100.00
44103;BME280;29769;42.178;24.742;2022-12-07T05:22:02;99735.31;;;4.13;100.00
44103;BME280;29769;42.178;24.742;2022-12-07T05:24:46;99746.56;;;4.09;100.00
44103;BME280;29769;42.178;24.742;2022-12-07T05:27:31;99734.38;;;4.09;100.00
44103;BME280;29769;42.178;24.742;2022-12-07T05:30:15;99737.91;;;4.14;100.00
44103;BME280;29769;42.178;24.742;2022-12-07T05:33:00;99748.31;;;4.14;100.00
44103;BME280;29769;42.178;24.742;2022-12-07T05:35:44;99757.75;;;4.04;100.00
44103;BME280;29769;42.178;24.742;2022-12-07T05:38:29;99750.84;;;4.07;100.00
44103;BME280;29769;42.178;24.742;2022-12-07T05:41:14;99755.84;;;3.88;100.00
44103;BME280;29769;42.178;24.742;2022-12-07T05:44:18;99754.19;;;3.93;100.00
44103;BME280;29769;42.178;24.742;2022-12-07T05:47:02;99749.16;;;4.10;100.00
44103;BME280;29769;42.178;24.742;2022-12-07T05:49:47;99744.75;;;4.04;100.00
44103;BME280;29769;42.178;24.742;2022-12-07T05:52:31;99756.59;;;3.80;100.00
44103;BME280;29769;42.178;24.742;2022-12-07T05:55:16;99749.50;;;3.67;100.00
44103;BME280;29769;42.178;24.742;2022-12-07T05:58:01;99747.00;;;3.74;100.00
44103;BME280;29769;42.178;24.742;2022-12-07T06:01:11;99756.53;;;3.72;100.00
44103;BME280;29769;42.178;24.742;2022-12-07T06:03:56;99755.63;;;3.72;100.00
44103;BME280;29769;42.178;24.742;2022-12-07T06:06:40;99751.31;;;3.74;100.00
44103;BME280;29769;42.178;24.742;2022-12-07T06:09:26;99756.53;;;3.72;100.00
44103;BME280;29769;42.178;24.742;2022-12-07T06:12:11;99752.97;;;3.69;100.00
44103;BME280;29769;42.178;24.742;2022-12-07T06:15:14;99746.09;;;3.74;100.00
44103;BME280;29769;42.178;24.742;2022-12-07T06:17:59;99762.63;;;3.77;100.00
44103;BME280;29769;42.178;24.742;2022-12-07T06:20:43;99764.44;;;3.83;100.00
44103;BME280;29769;42.178;24.742;2022-12-07T06:23:28;99766.22;;;3.85;100.00
44103;BME280;29769;42.178;24.742;2022-12-07T06:26:12;99761.91;;;3.86;100.00
44103;BME280;29769;42.178;24.742;2022-12-07T06:28:57;99761.97;;;3.90;100.00
44103;BME280;29769;42.178;24.742;2022-12-07T06:31:42;99752.44;;;3.94;100.00
44103;BME280;29769;42.178;24.742;2022-12-07T06:34:26;99759.50;;;4.02;100.00
44103;BME280;29769;42.178;24.742;2022-12-07T06:37:11;99757.88;;;4.12;100.00
44103;BME280;29769;42.178;24.742;2022-12-07T06:39:56;99758.81;;;4.20;100.00
44103;BME280;29769;42.178;24.742;2022-12-07T06:42:40;99763.22;;;4.24;100.00
44103;BME280;29769;42.178;24.742;2022-12-07T06:45:25;99758.94;;;4.29;100.00
44103;BME280;29769;42.178;24.742;2022-12-07T06:48:09;99764.25;;;4.40;100.00
44103;BME280;29769;42.178;24.742;2022-12-07T06:50:54;99772.22;;;4.55;100.00
44103;BME280;29769;42.178;24.742;2022-12-07T06:53:38;99773.25;;;4.71;100.00
44103;BME280;29769;42.178;24.742;2022-12-07T06:56:23;99769.97;;;4.93;100.00
44103;BME280;29769;42.178;24.742;2022-12-07T06:59:08;99771.78;;;5.02;100.00
44103;BME280;29769;42.178;24.742;2022-12-07T07:01:53;99770.84;;;4.97;100.00
44103;BME280;29769;42.178;24.742;2022-12-07T07:04:37;99764.91;;;5.11;100.00
44103;BME280;29769;42.178;24.742;2022-12-07T07:07:22;99764.16;;;5.32;100.00
44103;BME280;29769;42.178;24.742;2022-12-07T07:10:07;99752.09;;;5.43;100.00
44103;BME280;29769;42.178;24.742;2022-12-07T07:12:51;99758.19;;;5.47;100.00
44103;BME280;29769;42.178;24.742;2022-12-07T07:15:37;99746.97;;;5.64;100.00
44103;BME280;29769;42.178;24.742;2022-12-07T07:18:22;99763.47;;;5.56;100.00
44103;BME280;29769;42.178;24.742;2022-12-07T07:21:07;99766.03;;;5.51;100.00
44103;BME280;29769;42.178;24.742;2022-12-07T07:23:52;99764.38;;;5.64;100.00
44103;BME280;29769;42.178;24.742;2022-12-07T07:26:36;99764.44;;;5.71;100.00
44103;BME280;29769;42.178;24.742;2022-12-07T07:29:21;99768.03;;;5.89;100.00
44103;BME280;29769;42.178;24.742;2022-12-07T07:32:06;99763.69;;;5.95;100.00
44103;BME280;29769;42.178;24.742;2022-12-07T07:34:52;99761.16;;;6.18;100.00
44103;BME280;29769;42.178;24.742;2022-12-07T07:37:36;99765.56;;;6.22;100.00
44103;BME280;29769;42.178;24.742;2022-12-07T07:40:20;99762.03;;;6.11;100.00
44103;BME280;29769;42.178;24.742;2022-12-07T07:43:05;99774.22;;;6.12;100.00
44103;BME280;29769;42.178;24.742;2022-12-07T07:45:49;99782.97;;;6.28;100.00
44103;BME280;29769;42.178;24.742;2022-12-07T07:48:34;99777.75;;;6.24;100.00
44103;BME280;29769;42.178;24.742;2022-12-07T07:51:18;99776.94;;;6.56;100.00
44103;BME280;29769;42.178;24.742;2022-12-07T07:54:03;99781.34;;;6.87;100.00
44103;BME280;29769;42.178;24.742;2022-12-07T07:56:48;99786.63;;;7.27;100.00
44103;BME280;29769;42.178;24.742;2022-12-07T07:59:32;99783.06;;;7.56;100.00
44103;BME280;29769;42.178;24.742;2022-12-07T08:02:18;99782.16;;;7.73;100.00
44103;BME280;29769;42.178;24.742;2022-12-07T08:05:02;99773.28;;;8.16;100.00
44103;BME280;29769;42.178;24.742;2022-12-07T08:07:47;99778.25;;;8.72;100.00
44103;BME280;29769;42.178;24.742;2022-12-07T08:10:31;99772.22;;;9.65;100.00
44103;BME280;29769;42.178;24.742;2022-12-07T08:13:16;99769.19;;;10.68;100.00
44103;BME280;29769;42.178;24.742;2022-12-07T08:16:04;99775.38;;;11.75;100.00
44103;BME280;29769;42.178;24.742;2022-12-07T08:18:49;99774.28;;;12.29;100.00
44103;BME280;29769;42.178;24.742;2022-12-07T08:21:33;99772.31;;;12.39;100.00
44103;BME280;29769;42.178;24.742;2022-12-07T08:24:18;99767.44;;;12.61;100.00
44103;BME280;29769;42.178;24.742;2022-12-07T08:27:03;99768.69;;;13.21;100.00
44103;BME280;29769;42.178;24.742;2022-12-07T08:29:50;99766.91;;;14.50;100.00
44103;BME280;29769;42.178;24.742;2022-12-07T08:32:34;99761.91;;;16.48;87.07
44103;BME280;29769;42.178;24.742;2022-12-07T08:35:19;99757.88;;;17.48;76.58
44103;BME280;29769;42.178;24.742;2022-12-07T08:38:04;99756.19;;;18.08;70.84
44103;BME280;29769;42.178;24.742;2022-12-07T08:40:58;99758.69;;;19.59;60.70
44103;BME280;29769;42.178;24.742;2022-12-07T08:43:42;99752.97;;;19.84;56.15
44103;BME280;29769;42.178;24.742;2022-12-07T08:47:01;99752.63;;;19.38;56.59
44103;BME280;29769;42.178;24.742;2022-12-07T08:49:39;99731.69;;;20.32;53.90
44103;BME280;29769;42.178;24.742;2022-12-07T08:52:25;99736.75;;;20.70;52.13
44103;BME280;29769;42.178;24.742;2022-12-07T08:55:10;99730.78;;;21.71;48.84
44103;BME280;29769;42.178;24.742;2022-12-07T08:57:56;99729.19;;;22.70;45.27
44103;BME280;29769;42.178;24.742;2022-12-07T09:00:41;99718.22;;;23.14;43.45
44103;BME280;29769;42.178;24.742;2022-12-07T09:03:26;99709.81;;;24.48;40.52
44103;BME280;29769;42.178;24.742;2022-12-07T09:06:10;99700.81;;;24.23;39.66
44103;BME280;29769;42.178;24.742;2022-12-07T09:08:56;99705.25;;;23.47;40.48
44103;BME280;29769;42.178;24.742;2022-12-07T09:11:42;99698.50;;;22.59;41.61
44103;BME280;29769;42.178;24.742;2022-12-07T09:14:26;99692.47;;;23.11;41.67
44103;BME280;29769;42.178;24.742;2022-12-07T09:17:11;99685.03;;;22.47;42.65
44103;BME280;29769;42.178;24.742;2022-12-07T09:19:56;99681.28;;;23.44;40.94
44103;BME280;29769;42.178;24.742;2022-12-07T09:22:41;99673.94;;;24.23;39.64
44103;BME280;29769;42.178;24.742;2022-12-07T09:25:26;99667.13;;;24.30;38.85
44103;BME280;29769;42.178;24.742;2022-12-07T09:28:10;99658.22;;;25.61;36.82
44103;BME280;29769;42.178;24.742;2022-12-07T09:30:54;99651.16;;;26.61;34.55
44103;BME280;29769;42.178;24.742;2022-12-07T09:33:39;99652.34;;;26.90;33.63
44103;BME280;29769;42.178;24.742;2022-12-07T09:36:25;99642.88;;;28.10;32.16
44103;BME280;29769;42.178;24.742;2022-12-07T09:39:10;99644.00;;;27.87;31.84
44103;BME280;29769;42.178;24.742;2022-12-07T09:41:54;99634.25;;;28.16;31.42
44103;BME280;29769;42.178;24.742;2022-12-07T09:44:41;99627.09;;;28.55;30.69
44103;BME280;29769;42.178;24.742;2022-12-07T09:47:25;99624.97;;;28.59;30.19
44103;BME280;29769;42.178;24.742;2022-12-07T09:50:12;99624.78;;;27.60;30.92
44103;BME280;29769;42.178;24.742;2022-12-07T09:53:33;99619.19;;;27.52;31.27
44103;BME280;29769;42.178;24.742;2022-12-07T09:56:11;99621.91;;;26.77;31.95
44103;BME280;29769;42.178;24.742;2022-12-07T09:59:01;99623.22;;;26.39;32.48
44103;BME280;29769;42.178;24.742;2022-12-07T10:01:47;99615.03;;;26.95;31.54
44103;BME280;29769;42.178;24.742;2022-12-07T10:04:32;99622.34;;;26.50;33.01
44103;BME280;29769;42.178;24.742;2022-12-07T10:07:17;99623.66;;;26.89;33.17
44103;BME280;29769;42.178;24.742;2022-12-07T10:10:03;99624.13;;;28.18;31.05
44103;BME280;29769;42.178;24.742;2022-12-07T10:15:59;99611.88;;;28.14;30.46
44103;BME280;29769;42.178;24.742;2022-12-07T10:18:43;99599.44;;;27.40;31.31
44103;BME280;29769;42.178;24.742;2022-12-07T10:21:28;99601.19;;;26.77;32.31
44103;BME280;29769;42.178;24.742;2022-12-07T10:24:14;99595.81;;;26.34;31.28
44103;BME280;29769;42.178;24.742;2022-12-07T10:27:02;99588.97;;;25.40;32.48
44103;BME280;29769;42.178;24.742;2022-12-07T10:29:47;99584.72;;;24.06;34.13
44103;BME280;29769;42.178;24.742;2022-12-07T10:32:34;99589.66;;;23.99;35.16
44103;BME280;29769;42.178;24.742;2022-12-07T10:35:24;99587.22;;;23.58;36.88
44103;BME280;29769;42.178;24.742;2022-12-07T10:38:09;99578.16;;;24.10;35.72
44103;BME280;29769;42.178;24.742;2022-12-07T10:41:03;99580.69;;;24.60;35.56
44103;BME280;29769;42.178;24.742;2022-12-07T10:43:50;99586.63;;;25.35;33.42
44103;BME280;29769;42.178;24.742;2022-12-07T10:55:46;99572.75;;;27.26;30.88
44103;BME280;29769;42.178;24.742;2022-12-07T11:01:25;99565.84;;;26.80;30.88
44103;BME280;29769;42.178;24.742;2022-12-07T11:07:13;99561.84;;;28.58;29.18
44103;BME280;29769;42.178;24.742;2022-12-07T11:10:11;99559.34;;;28.17;28.67
44103;BME280;29769;42.178;24.742;2022-12-07T11:27:29;99545.03;;;24.69;33.31
44103;BME280;29769;42.178;24.742;2022-12-07T11:30:20;99537.75;;;25.06;33.29
44103;BME280;29769;42.178;24.742;2022-12-07T11:41:31;99539.53;;;22.45;37.51
44103;BME280;29769;42.178;24.742;2022-12-07T11:47:22;99539.59;;;21.76;39.72
44103;BME280;29769;42.178;24.742;2022-12-07T11:53:18;99522.06;;;20.54;42.29
44103;BME280;29769;42.178;24.742;2022-12-07T11:56:16;99525.06;;;20.63;43.14
44103;BME280;29769;42.178;24.742;2022-12-07T12:07:27;99504.38;;;20.21;43.81
44103;BME280;29769;42.178;24.742;2022-12-07T12:13:05;99506.63;;;21.47;41.95
44103;BME280;29769;42.178;24.742;2022-12-07T12:16:04;99499.09;;;21.94;40.58
44103;BME280;29769;42.178;24.742;2022-12-07T12:21:39;99497.50;;;21.63;40.32
44103;BME280;29769;42.178;24.742;2022-12-07T12:24:26;99496.13;;;21.00;41.25
44103;BME280;29769;42.178;24.742;2022-12-07T12:27:28;99497.59;;;20.61;42.17
44103;BME280;29769;42.178;24.742;2022-12-07T12:30:31;99486.09;;;19.18;45.67
44103;BME280;29769;42.178;24.742;2022-12-07T12:39:15;99480.91;;;17.76;50.90
44103;BME280;29769;42.178;24.742;2022-12-07T12:42:01;99481.78;;;17.19;52.70
44103;BME280;29769;42.178;24.742;2022-12-07T12:45:11;99478.19;;;16.61;54.53
44103;BME280;29769;42.178;24.742;2022-12-07T12:48:01;99478.41;;;15.46;58.90
44103;BME280;29769;42.178;24.742;2022-12-07T12:50:46;99477.63;;;15.21;61.39
44103;BME280;29769;42.178;24.742;2022-12-07T12:53:30;99474.09;;;15.43;61.02
44103;BME280;29769;42.178;24.742;2022-12-07T13:08:30;99472.94;;;13.75;69.56
44103;BME280;29769;42.178;24.742;2022-12-07T13:11:18;99467.22;;;13.89;69.57
44103;BME280;29769;42.178;24.742;2022-12-07T13:17:08;99468.69;;;13.71;70.13
44103;BME280;29769;42.178;24.742;2022-12-07T13:19:54;99474.19;;;13.64;70.37
44103;BME280;29769;42.178;24.742;2022-12-07T13:22:40;99472.38;;;13.36;73.08
44103;BME280;29769;42.178;24.742;2022-12-07T13:28:36;99478.44;;;13.40;73.13
44103;BME280;29769;42.178;24.742;2022-12-07T13:31:28;99481.44;;;13.28;73.42
44103;BME280;29769;42.178;24.742;2022-12-07T13:37:34;99479.69;;;12.96;75.50
44103;BME280;29769;42.178;24.742;2022-12-07T13:40:20;99481.69;;;12.56;78.52
44103;BME280;29769;42.178;24.742;2022-12-07T13:43:05;99487.00;;;12.86;78.07
44103;BME280;29769;42.178;24.742;2022-12-07T13:45:57;99482.09;;;13.05;77.43
44103;BME280;29769;42.178;24.742;2022-12-07T13:48:48;99483.31;;;13.24;76.16
44103;BME280;29769;42.178;24.742;2022-12-07T13:51:34;99478.56;;;13.35;75.12
44103;BME280;29769;42.178;24.742;2022-12-07T13:54:19;99492.75;;;13.33;74.99
44103;BME280;29769;42.178;24.742;2022-12-07T13:57:04;99495.78;;;13.19;75.83
44103;BME280;29769;42.178;24.742;2022-12-07T13:59:49;99488.78;;;13.18;76.01
44103;BME280;29769;42.178;24.742;2022-12-07T14:02:34;99488.63;;;13.23;75.42
44103;BME280;29769;42.178;24.742;2022-12-07T14:05:26;99486.00;;;13.23;75.33
44103;BME280;29769;42.178;24.742;2022-12-07T14:10:57;99469.47;;;12.53;78.58
44103;BME280;29769;42.178;24.742;2022-12-07T14:16:34;99486.94;;;12.23;82.82
44103;BME280;29769;42.178;24.742;2022-12-07T14:22:44;99484.06;;;11.98;85.58
44103;BME280;29769;42.178;24.742;2022-12-07T14:25:48;99487.72;;;11.91;86.31
44103;BME280;29769;42.178;24.742;2022-12-07T14:28:34;99484.50;;;11.80;87.62
44103;BME280;29769;42.178;24.742;2022-12-07T14:31:21;99486.41;;;11.74;88.87
44103;BME280;29769;42.178;24.742;2022-12-07T14:34:11;99486.47;;;11.69;89.76
44103;BME280;29769;42.178;24.742;2022-12-07T14:36:56;99494.47;;;11.65;90.78
44103;BME280;29769;42.178;24.742;2022-12-07T14:39:40;99484.72;;;11.68;91.37
44103;BME280;29769;42.178;24.742;2022-12-07T14:42:27;99488.22;;;11.70;90.96
44103;BME280;29769;42.178;24.742;2022-12-07T14:45:16;99487.41;;;11.67;91.58
44103;BME280;29769;42.178;24.742;2022-12-07T14:48:01;99489.09;;;11.71;90.92
44103;BME280;29769;42.178;24.742;2022-12-07T14:50:48;99483.91;;;11.66;91.47
44103;BME280;29769;42.178;24.742;2022-12-07T14:53:35;99488.41;;;11.61;91.76
44103;BME280;29769;42.178;24.742;2022-12-07T14:56:20;99484.03;;;11.62;91.76
44103;BME280;29769;42.178;24.742;2022-12-07T14:59:05;99486.00;;;11.52;92.32
44103;BME280;29769;42.178;24.742;2022-12-07T15:01:49;99491.56;;;11.38;94.25
44103;BME280;29769;42.178;24.742;2022-12-07T15:04:34;99483.75;;;11.34;94.49
44103;BME280;29769;42.178;24.742;2022-12-07T15:07:19;99480.34;;;11.30;94.50
44103;BME280;29769;42.178;24.742;2022-12-07T15:10:05;99477.06;;;11.19;95.29
44103;BME280;29769;42.178;24.742;2022-12-07T15:12:50;99478.19;;;11.07;97.20
44103;BME280;29769;42.178;24.742;2022-12-07T15:15:35;99485.50;;;10.93;98.79
44103;BME280;29769;42.178;24.742;2022-12-07T15:18:20;99491.84;;;10.82;100.00
44103;BME280;29769;42.178;24.742;2022-12-07T15:21:05;99497.44;;;10.66;100.00
44103;BME280;29769;42.178;24.742;2022-12-07T15:23:49;99502.94;;;10.51;100.00
44103;BME280;29769;42.178;24.742;2022-12-07T15:26:34;99506.69;;;10.40;100.00
44103;BME280;29769;42.178;24.742;2022-12-07T15:29:19;99514.84;;;10.23;100.00
44103;BME280;29769;42.178;24.742;2022-12-07T15:32:03;99518.13;;;9.80;100.00
44103;BME280;29769;42.178;24.742;2022-12-07T15:34:48;99516.03;;;9.43;100.00
44103;BME280;29769;42.178;24.742;2022-12-07T15:37:33;99514.47;;;9.28;100.00
44103;BME280;29769;42.178;24.742;2022-12-07T15:40:17;99514.69;;;9.13;100.00
44103;BME280;29769;42.178;24.742;2022-12-07T15:43:02;99515.53;;;9.15;100.00
44103;BME280;29769;42.178;24.742;2022-12-07T15:45:49;99509.47;;;9.10;100.00
44103;BME280;29769;42.178;24.742;2022-12-07T15:48:33;99500.66;;;9.14;100.00
44103;BME280;29769;42.178;24.742;2022-12-07T15:51:17;99511.16;;;9.14;100.00
44103;BME280;29769;42.178;24.742;2022-12-07T15:54:02;99509.44;;;9.11;100.00
44103;BME280;29769;42.178;24.742;2022-12-07T15:56:47;99517.38;;;9.05;100.00
44103;BME280;29769;42.178;24.742;2022-12-07T15:59:31;99523.72;;;8.87;100.00
44103;BME280;29769;42.178;24.742;2022-12-07T16:02:16;99516.91;;;8.71;100.00
44103;BME280;29769;42.178;24.742;2022-12-07T16:05:01;99526.63;;;8.60;100.00
44103;BME280;29769;42.178;24.742;2022-12-07T16:07:45;99526.09;;;8.19;100.00
44103;BME280;29769;42.178;24.742;2022-12-07T16:10:32;99528.88;;;8.02;100.00
44103;BME280;29769;42.178;24.742;2022-12-07T16:13:17;99535.03;;;7.90;100.00
44103;BME280;29769;42.178;24.742;2022-12-07T16:16:04;99532.34;;;7.99;100.00
44103;BME280;29769;42.178;24.742;2022-12-07T16:18:49;99531.44;;;8.08;100.00
44103;BME280;29769;42.178;24.742;2022-12-07T16:21:34;99547.16;;;8.05;100.00
44103;BME280;29769;42.178;24.742;2022-12-07T16:24:19;99546.38;;;7.91;100.00
44103;BME280;29769;42.178;24.742;2022-12-07T16:27:04;99537.91;;;7.57;100.00
44103;BME280;29769;42.178;24.742;2022-12-07T16:29:49;99543.22;;;7.43;100.00
44103;BME280;29769;42.178;24.742;2022-12-07T16:32:33;99544.94;;;7.47;100.00
44103;BME280;29769;42.178;24.742;2022-12-07T16:35:18;99542.28;;;7.53;100.00
44103;BME280;29769;42.178;24.742;2022-12-07T16:38:02;99544.03;;;7.50;100.00
44103;BME280;29769;42.178;24.742;2022-12-07T16:40:47;99547.50;;;7.50;100.00
44103;BME280;29769;42.178;24.742;2022-12-07T16:43:32;99551.84;;;7.56;100.00
44103;BME280;29769;42.178;24.742;2022-12-07T16:46:16;99556.19;;;7.62;100.00